Portada
METAR-TAF:

METAR-TAF

Aeroports :

Saràtov, Rússia

latitud: 51-42-46N, longitud: 46-10-16E, altitud: 118 m

Observació

L'informe es va fer fa 32 minuts, a les 07:00 UTC
Vent 8 kt del Oest/Nord-Oest
Temperatura 0°C
Humitat 80%
Pressió 995 hPa
Visibilitat 10 km o més
Núvols disperses a una alçada de 2600 ft

METAR: UWSG 230700Z 30004MPS 9999 SCT026 M00/M03 Q0995 R26/410165 NOSIG RMK QFE743/0991

Hora: 10:32 (07:32 UTC)


TAF: manca

Observacions i pronòstics meteorològics de més de 4000 aeroports (METAR i TAF).

Les estacions disponibles són els punts grocs i vermells al mapa.

Posi el ratolí al punt desitjat per veure el nom de l'estació.

Feu clic per veure les observacions i els pronòstics meteorològics.

Per canviar el mapa: feu clic els botons verds amb una creu de color negre per apropar; al botó verd amb un guió per allunyar la imatge; o en les fletxes verdes per a mapes adjacents.


METAR-TAF: